createdAt,value
2023-03-15T00:00:50.700Z,2.00
2023-03-15T00:03:25.698Z,2.90
2023-03-15T00:10:30.889Z,2.10
2023-03-15T00:18:07.582Z,2.00
2023-03-15T00:20:47.306Z,2.80
2023-03-15T00:27:52.179Z,2.80
2023-03-15T00:30:24.655Z,4.60
2023-03-15T00:32:57.163Z,4.60
2023-03-15T00:43:52.264Z,3.20
2023-03-15T00:46:24.539Z,7.20
2023-03-15T00:48:57.327Z,6.10
2023-03-15T00:51:30.429Z,5.80
2023-03-15T00:54:09.178Z,7.00
2023-03-15T00:56:42.217Z,7.70
2023-03-15T00:59:14.399Z,7.80
2023-03-15T01:01:53.348Z,4.80
2023-03-15T01:04:49.074Z,4.30
2023-03-15T01:12:12.800Z,5.10
2023-03-15T01:15:28.076Z,6.10
2023-03-15T01:22:36.134Z,8.90
2023-03-15T01:25:11.827Z,5.80
2023-03-15T01:32:10.320Z,5.30
2023-03-15T01:39:26.857Z,5.70
2023-03-15T01:46:35.203Z,6.10
2023-03-15T01:50:16.894Z,8.10
2023-03-15T01:52:49.204Z,9.10
2023-03-15T01:59:36.470Z,4.80
2023-03-15T02:06:46.711Z,11.00
2023-03-15T02:14:36.584Z,3.40
2023-03-15T02:34:58.311Z,3.70
2023-03-15T02:42:03.652Z,2.90
2023-03-15T02:44:44.067Z,4.10
2023-03-15T02:51:45.566Z,4.40
2023-03-15T02:54:17.841Z,4.50
2023-03-15T03:01:20.905Z,4.20
2023-03-15T03:03:53.158Z,4.90
2023-03-15T03:06:25.365Z,4.40
2023-03-15T03:12:57.534Z,5.30
2023-03-15T03:20:01.410Z,9.80
2023-03-15T03:27:29.696Z,4.40
2023-03-15T03:34:52.515Z,4.50
2023-03-15T03:37:54.842Z,6.70
2023-03-15T03:45:12.847Z,5.30
2023-03-15T03:48:15.376Z,4.30
2023-03-15T03:50:47.826Z,4.60
2023-03-15T03:53:26.609Z,5.80
2023-03-15T03:56:21.422Z,7.70
2023-03-15T03:58:53.924Z,6.70
2023-03-15T04:01:58.212Z,5.30
2023-03-15T04:13:20.907Z,6.50
2023-03-15T04:27:20.243Z,7.80
2023-03-15T04:30:32.206Z,7.20
2023-03-15T04:33:50.410Z,6.70
2023-03-15T04:45:29.966Z,6.60
2023-03-15T04:48:41.735Z,6.50
2023-03-15T04:51:59.500Z,6.60
2023-03-15T04:59:33.949Z,6.60
2023-03-15T05:14:57.996Z,5.90
2023-03-15T05:22:14.529Z,6.20
2023-03-15T05:25:27.827Z,7.00
2023-03-15T05:28:47.515Z,5.20
2023-03-15T05:31:58.688Z,5.50
2023-03-15T05:35:15.922Z,7.80
2023-03-15T05:42:29.950Z,8.20
2023-03-15T05:49:32.538Z,6.60
2023-03-15T05:53:37.626Z,5.00
2023-03-15T06:09:30.082Z,5.50
2023-03-15T06:12:44.912Z,6.70
2023-03-15T06:15:23.283Z,5.80
2023-03-15T06:18:11.338Z,6.00
2023-03-15T06:34:22.420Z,4.50
2023-03-15T06:36:55.915Z,5.10
2023-03-15T06:44:00.527Z,5.00
2023-03-15T06:51:06.969Z,3.90
2023-03-15T06:53:39.116Z,4.80
2023-03-15T06:56:12.133Z,4.80
2023-03-15T06:58:50.679Z,4.60
2023-03-15T07:01:22.701Z,5.40
2023-03-15T07:03:54.870Z,4.60
2023-03-15T07:10:59.625Z,4.80
2023-03-15T07:13:34.251Z,4.30
2023-03-15T07:16:07.050Z,4.00
2023-03-15T07:18:39.209Z,4.50
2023-03-15T07:21:11.288Z,4.80
2023-03-15T07:23:43.234Z,4.60
2023-03-15T07:26:33.521Z,5.40
2023-03-15T07:29:15.710Z,5.00
2023-03-15T07:45:28.769Z,7.60
2023-03-15T07:48:08.206Z,6.60
2023-03-15T07:50:40.489Z,11.60
2023-03-15T07:57:43.667Z,10.70
2023-03-15T08:00:20.377Z,11.40
2023-03-15T08:02:53.715Z,7.40
2023-03-15T08:05:28.918Z,5.50
2023-03-15T08:08:03.091Z,4.40
2023-03-15T08:14:08.775Z,6.20
2023-03-15T08:16:47.733Z,5.20
2023-03-15T08:19:20.068Z,6.00
2023-03-15T08:21:58.951Z,6.10
2023-03-15T08:24:31.165Z,7.80
2023-03-15T08:27:10.124Z,7.10
2023-03-15T08:29:42.573Z,7.40
2023-03-15T08:32:21.671Z,9.00
2023-03-15T08:34:54.318Z,17.60
2023-03-15T08:38:14.615Z,5.60
2023-03-15T08:40:46.915Z,29.40
2023-03-15T08:43:19.014Z,14.80
2023-03-15T08:46:00.547Z,16.50
2023-03-15T08:49:18.696Z,18.50
2023-03-15T08:51:58.046Z,11.80
2023-03-15T08:54:30.256Z,9.40
2023-03-15T08:57:02.520Z,8.80
2023-03-15T09:04:09.006Z,4.80
2023-03-15T09:06:47.892Z,4.70
2023-03-15T09:13:52.878Z,5.70
2023-03-15T09:20:23.424Z,33.00
2023-03-15T09:22:57.219Z,6.40
2023-03-15T09:25:29.573Z,46.30
2023-03-15T09:28:28.060Z,7.90
2023-03-15T09:31:08.660Z,9.80
2023-03-15T09:33:41.298Z,5.60
2023-03-15T09:36:55.109Z,4.20
2023-03-15T09:44:26.766Z,3.90
2023-03-15T09:59:36.729Z,12.50
2023-03-15T10:19:09.725Z,9.40
2023-03-15T10:26:57.779Z,4.30
2023-03-15T10:29:37.840Z,6.20
2023-03-15T10:36:36.880Z,4.50
2023-03-15T10:48:37.775Z,10.50
2023-03-15T11:00:29.588Z,11.50
2023-03-15T11:07:16.905Z,4.70
2023-03-15T11:14:02.810Z,11.90
2023-03-15T11:21:18.552Z,6.20
2023-03-15T11:23:53.607Z,9.20
2023-03-15T11:51:36.541Z,6.30
2023-03-15T11:58:52.913Z,5.80
2023-03-15T12:10:14.389Z,6.10
2023-03-15T12:12:49.549Z,8.90
2023-03-15T12:16:08.730Z,9.90
2023-03-15T12:22:58.280Z,8.20
2023-03-15T12:26:10.602Z,10.00
2023-03-15T12:32:58.829Z,16.20
2023-03-15T12:35:51.991Z,12.60
2023-03-15T12:38:25.482Z,7.20
2023-03-15T12:41:33.066Z,6.50
2023-03-15T12:48:19.303Z,38.60
2023-03-15T12:51:26.904Z,17.40
2023-03-15T12:54:11.072Z,29.50
2023-03-15T13:01:22.773Z,16.00
2023-03-15T13:04:00.682Z,14.10
2023-03-15T13:15:20.336Z,20.90
2023-03-15T13:23:06.325Z,13.50
2023-03-15T13:34:26.684Z,14.90
2023-03-15T13:37:33.370Z,13.10
2023-03-15T13:44:55.729Z,8.60
2023-03-15T13:48:01.040Z,27.80
2023-03-15T13:50:40.621Z,14.60
2023-03-15T13:57:26.854Z,7.50
2023-03-15T14:12:53.837Z,10.90
2023-03-15T14:28:18.863Z,11.50
2023-03-15T14:30:59.551Z,6.50
2023-03-15T14:38:40.472Z,5.70
2023-03-15T14:46:18.508Z,7.20
2023-03-15T14:48:52.337Z,6.40
2023-03-15T14:51:33.060Z,6.20
2023-03-15T14:58:37.402Z,18.00
2023-03-15T15:01:50.136Z,11.30
2023-03-15T15:04:24.859Z,8.60
2023-03-15T15:07:49.483Z,11.70
2023-03-15T15:10:21.858Z,11.30
2023-03-15T15:13:06.433Z,5.50
2023-03-15T15:16:24.333Z,5.90
2023-03-15T15:18:56.540Z,7.60
2023-03-15T15:21:36.368Z,5.50
2023-03-15T15:28:05.419Z,6.50
2023-03-15T15:31:32.872Z,8.10
2023-03-15T15:34:12.332Z,5.80
2023-03-15T15:36:46.640Z,4.10
2023-03-15T15:39:28.006Z,4.40
2023-03-15T15:42:45.409Z,3.60
2023-03-15T15:45:24.924Z,5.30
2023-03-15T15:47:57.138Z,4.80
2023-03-15T15:50:37.130Z,6.70
2023-03-15T16:04:48.265Z,10.40
2023-03-15T16:07:27.769Z,8.40
2023-03-15T16:10:01.597Z,7.00
2023-03-15T16:12:40.777Z,7.90
2023-03-15T16:15:16.309Z,11.20
2023-03-15T16:35:37.563Z,12.10
2023-03-15T16:38:33.195Z,8.60
2023-03-15T16:41:05.443Z,6.70
2023-03-15T16:43:37.675Z,8.10
2023-03-15T16:46:15.825Z,26.70
2023-03-15T16:48:48.241Z,26.70
2023-03-15T16:51:20.751Z,15.70
2023-03-15T16:54:02.266Z,38.70
2023-03-15T16:56:53.286Z,38.30
2023-03-15T16:59:25.660Z,39.20
2023-03-15T17:01:57.909Z,45.60
2023-03-15T17:04:30.241Z,29.60
2023-03-15T17:07:03.177Z,29.30
2023-03-15T17:09:35.333Z,23.80
2023-03-15T17:12:08.060Z,18.60
2023-03-15T17:14:41.239Z,13.60
2023-03-15T17:17:13.466Z,22.00
2023-03-15T17:19:45.729Z,26.50
2023-03-15T17:22:18.432Z,27.60
2023-03-15T17:24:57.147Z,32.90
2023-03-15T17:27:35.456Z,27.90
2023-03-15T17:30:35.966Z,27.30
2023-03-15T17:33:08.578Z,21.90
2023-03-15T17:35:43.955Z,14.80
2023-03-15T17:38:19.185Z,18.90
2023-03-15T17:40:51.737Z,15.30
2023-03-15T17:43:23.870Z,22.20
2023-03-15T17:45:56.056Z,16.90
2023-03-15T17:48:28.495Z,15.10
2023-03-15T17:51:00.823Z,15.40
2023-03-15T17:53:33.017Z,12.40
2023-03-15T17:56:05.656Z,13.70
2023-03-15T17:58:37.895Z,63.50
2023-03-15T18:01:17.425Z,162.70
2023-03-15T18:03:50.674Z,67.20
2023-03-15T18:06:24.525Z,32.60
2023-03-15T18:08:57.036Z,19.70
2023-03-15T18:11:33.906Z,19.70
2023-03-15T18:14:06.445Z,19.20
2023-03-15T18:16:38.840Z,29.80
2023-03-15T18:19:11.050Z,19.70
2023-03-15T18:21:43.585Z,19.30
2023-03-15T18:24:16.194Z,19.50
2023-03-15T18:26:48.514Z,18.90
2023-03-15T18:29:20.830Z,16.30
2023-03-15T18:31:55.799Z,24.00
2023-03-15T18:34:28.694Z,16.90
2023-03-15T18:37:00.972Z,14.40
2023-03-15T18:39:33.142Z,11.70
2023-03-15T18:42:05.476Z,11.50
2023-03-15T18:44:45.870Z,11.90
2023-03-15T18:47:18.414Z,11.20
2023-03-15T18:49:53.179Z,12.40
2023-03-15T18:52:29.162Z,17.50
2023-03-15T18:55:01.664Z,27.20
2023-03-15T18:57:33.994Z,22.40
2023-03-15T19:02:56.209Z,41.10
2023-03-15T19:05:30.887Z,33.80
2023-03-15T19:08:03.273Z,30.30
2023-03-15T19:10:35.423Z,26.00
2023-03-15T19:13:07.959Z,28.60
2023-03-15T19:15:40.659Z,25.80
2023-03-15T19:18:13.146Z,26.70
2023-03-15T19:20:47.003Z,28.50
2023-03-15T19:23:19.522Z,24.70
2023-03-15T19:25:51.619Z,27.50
2023-03-15T19:28:37.460Z,26.90
2023-03-15T19:31:10.219Z,28.10
2023-03-15T19:33:45.412Z,29.90
2023-03-15T19:36:22.193Z,32.70
2023-03-15T19:38:54.376Z,32.40
2023-03-15T19:41:27.056Z,31.10
2023-03-15T19:43:59.237Z,34.50
2023-03-15T19:46:31.732Z,30.70
2023-03-15T19:49:04.567Z,27.80
2023-03-15T19:51:37.218Z,21.90
2023-03-15T19:54:10.232Z,21.40
2023-03-15T19:56:43.215Z,21.50
2023-03-15T19:59:15.527Z,21.00
2023-03-15T20:01:47.899Z,22.00
2023-03-15T20:07:54.526Z,18.90
2023-03-15T20:10:26.865Z,16.90
2023-03-15T20:17:15.750Z,19.10
2023-03-15T20:23:22.117Z,18.10
2023-03-15T20:29:59.762Z,31.50
2023-03-15T20:32:32.610Z,42.50
2023-03-15T20:35:23.204Z,39.90
2023-03-15T20:37:56.286Z,26.70
2023-03-15T20:40:28.683Z,25.50
2023-03-15T20:43:08.032Z,29.60
2023-03-15T20:45:40.813Z,31.20
2023-03-15T20:48:46.405Z,32.80
2023-03-15T20:51:25.820Z,26.20
2023-03-15T20:53:58.226Z,21.40
2023-03-15T20:56:37.728Z,20.70
2023-03-15T21:03:43.209Z,21.20
2023-03-15T21:17:17.412Z,47.30
2023-03-15T21:19:57.074Z,55.90
2023-03-15T21:22:29.361Z,57.60
2023-03-15T21:33:12.972Z,39.70
2023-03-15T21:35:51.887Z,35.80
2023-03-15T21:46:36.404Z,30.90
2023-03-15T21:49:54.239Z,27.40
2023-03-15T21:52:50.184Z,27.10
2023-03-15T21:55:32.062Z,30.80
2023-03-15T21:58:50.226Z,34.00
2023-03-15T22:01:57.690Z,33.00
2023-03-15T22:09:04.820Z,36.80
2023-03-15T22:11:37.744Z,33.10
2023-03-15T22:14:16.859Z,31.80
2023-03-15T22:16:49.593Z,34.20
2023-03-15T22:19:28.808Z,32.30
2023-03-15T22:22:01.744Z,30.10
2023-03-15T22:24:41.912Z,32.00
2023-03-15T22:27:14.717Z,32.20
2023-03-15T22:29:53.843Z,31.20
2023-03-15T22:32:26.639Z,31.50
2023-03-15T22:38:41.322Z,31.00
2023-03-15T22:45:08.117Z,28.00
2023-03-15T22:52:13.639Z,26.00
2023-03-15T22:54:46.484Z,25.90
2023-03-15T22:57:26.990Z,27.60
2023-03-15T23:03:47.769Z,26.70
2023-03-15T23:06:20.822Z,27.40
2023-03-15T23:08:59.838Z,26.10
2023-03-15T23:11:32.245Z,26.90
2023-03-15T23:14:11.288Z,24.80
2023-03-15T23:16:44.236Z,19.10
2023-03-15T23:23:10.259Z,22.20
2023-03-15T23:25:48.074Z,22.50
2023-03-15T23:28:22.293Z,22.70
2023-03-15T23:31:04.929Z,20.40
2023-03-15T23:33:52.183Z,21.00
2023-03-15T23:36:31.934Z,20.40
2023-03-15T23:39:05.488Z,21.00
2023-03-15T23:41:46.282Z,20.60
2023-03-15T23:48:57.757Z,24.10
2023-03-15T23:56:22.257Z,20.60
2023-03-15T23:58:55.042Z,18.90
